sensor_id;sensor_type;location;lat;lon;timestamp;P1;durP1;ratioP1;P2;durP2;ratioP2
64282;SDS011;50497;50.720;-2.084;2023-11-22T00:00:17;13.73;;;4.80;;
64282;SDS011;50497;50.720;-2.084;2023-11-22T00:02:42;13.88;;;5.10;;
64282;SDS011;50497;50.720;-2.084;2023-11-22T00:05:08;14.23;;;5.40;;
64282;SDS011;50497;50.720;-2.084;2023-11-22T00:07:34;23.83;;;8.27;;
64282;SDS011;50497;50.720;-2.084;2023-11-22T00:10:00;22.08;;;8.10;;
64282;SDS011;50497;50.720;-2.084;2023-11-22T00:12:26;32.20;;;10.35;;
64282;SDS011;50497;50.720;-2.084;2023-11-22T00:14:52;27.85;;;9.70;;
64282;SDS011;50497;50.720;-2.084;2023-11-22T00:17:18;22.17;;;7.28;;
64282;SDS011;50497;50.720;-2.084;2023-11-22T00:19:44;24.90;;;8.75;;
64282;SDS011;50497;50.720;-2.084;2023-11-22T00:22:10;21.20;;;8.20;;
64282;SDS011;50497;50.720;-2.084;2023-11-22T00:24:39;15.52;;;5.93;;
64282;SDS011;50497;50.720;-2.084;2023-11-22T00:27:05;17.08;;;6.18;;
64282;SDS011;50497;50.720;-2.084;2023-11-22T00:29:31;15.35;;;5.53;;
64282;SDS011;50497;50.720;-2.084;2023-11-22T00:31:57;16.88;;;5.35;;
64282;SDS011;50497;50.720;-2.084;2023-11-22T00:34:22;12.77;;;5.10;;
64282;SDS011;50497;50.720;-2.084;2023-11-22T00:36:48;15.25;;;5.72;;
64282;SDS011;50497;50.720;-2.084;2023-11-22T00:39:14;13.18;;;5.32;;
64282;SDS011;50497;50.720;-2.084;2023-11-22T00:41:39;14.05;;;5.63;;
64282;SDS011;50497;50.720;-2.084;2023-11-22T00:44:05;14.18;;;5.28;;
64282;SDS011;50497;50.720;-2.084;2023-11-22T00:46:33;13.77;;;5.95;;
64282;SDS011;50497;50.720;-2.084;2023-11-22T00:48:59;14.50;;;5.30;;
64282;SDS011;50497;50.720;-2.084;2023-11-22T00:51:24;15.30;;;5.68;;
64282;SDS011;50497;50.720;-2.084;2023-11-22T00:53:50;11.98;;;5.18;;
64282;SDS011;50497;50.720;-2.084;2023-11-22T00:56:16;13.70;;;5.45;;
64282;SDS011;50497;50.720;-2.084;2023-11-22T00:58:41;14.32;;;5.47;;
64282;SDS011;50497;50.720;-2.084;2023-11-22T01:01:10;14.15;;;5.80;;
64282;SDS011;50497;50.720;-2.084;2023-11-22T01:03:36;13.43;;;6.18;;
64282;SDS011;50497;50.720;-2.084;2023-11-22T01:06:02;14.77;;;5.80;;
64282;SDS011;50497;50.720;-2.084;2023-11-22T01:08:27;15.93;;;5.93;;
64282;SDS011;50497;50.720;-2.084;2023-11-22T01:10:53;15.07;;;6.00;;
64282;SDS011;50497;50.720;-2.084;2023-11-22T01:13:18;19.85;;;6.25;;
64282;SDS011;50497;50.720;-2.084;2023-11-22T01:15:43;13.55;;;5.97;;
64282;SDS011;50497;50.720;-2.084;2023-11-22T01:18:09;12.65;;;5.40;;
64282;SDS011;50497;50.720;-2.084;2023-11-22T01:20:35;13.18;;;5.80;;
64282;SDS011;50497;50.720;-2.084;2023-11-22T01:23:01;12.90;;;5.88;;
64282;SDS011;50497;50.720;-2.084;2023-11-22T01:25:26;14.40;;;5.85;;
64282;SDS011;50497;50.720;-2.084;2023-11-22T01:27:53;13.18;;;5.57;;
64282;SDS011;50497;50.720;-2.084;2023-11-22T01:30:18;15.05;;;6.05;;
64282;SDS011;50497;50.720;-2.084;2023-11-22T01:32:44;17.35;;;5.82;;
64282;SDS011;50497;50.720;-2.084;2023-11-22T01:35:10;16.60;;;6.18;;
64282;SDS011;50497;50.720;-2.084;2023-11-22T01:37:35;14.60;;;5.60;;
64282;SDS011;50497;50.720;-2.084;2023-11-22T01:40:00;15.63;;;6.25;;
64282;SDS011;50497;50.720;-2.084;2023-11-22T01:42:28;13.70;;;5.75;;
64282;SDS011;50497;50.720;-2.084;2023-11-22T01:44:53;15.18;;;6.10;;
64282;SDS011;50497;50.720;-2.084;2023-11-22T01:47:19;14.73;;;5.85;;
64282;SDS011;50497;50.720;-2.084;2023-11-22T01:49:45;15.88;;;5.97;;
64282;SDS011;50497;50.720;-2.084;2023-11-22T01:52:11;16.83;;;6.60;;
64282;SDS011;50497;50.720;-2.084;2023-11-22T01:54:37;12.82;;;5.43;;
64282;SDS011;50497;50.720;-2.084;2023-11-22T01:57:03;13.85;;;5.78;;
64282;SDS011;50497;50.720;-2.084;2023-11-22T01:59:32;13.75;;;5.28;;
64282;SDS011;50497;50.720;-2.084;2023-11-22T02:01:58;11.18;;;5.25;;
64282;SDS011;50497;50.720;-2.084;2023-11-22T02:04:24;16.13;;;5.53;;
64282;SDS011;50497;50.720;-2.084;2023-11-22T02:06:50;14.68;;;5.43;;
64282;SDS011;50497;50.720;-2.084;2023-11-22T02:09:16;12.27;;;5.10;;
64282;SDS011;50497;50.720;-2.084;2023-11-22T02:11:42;14.82;;;5.43;;
64282;SDS011;50497;50.720;-2.084;2023-11-22T02:14:10;16.75;;;6.25;;
64282;SDS011;50497;50.720;-2.084;2023-11-22T02:16:36;13.23;;;4.95;;
64282;SDS011;50497;50.720;-2.084;2023-11-22T02:19:02;15.90;;;5.60;;
64282;SDS011;50497;50.720;-2.084;2023-11-22T02:21:30;14.50;;;5.40;;
64282;SDS011;50497;50.720;-2.084;2023-11-22T02:23:55;12.95;;;5.28;;
64282;SDS011;50497;50.720;-2.084;2023-11-22T02:26:21;10.38;;;5.00;;
64282;SDS011;50497;50.720;-2.084;2023-11-22T02:28:46;11.20;;;5.28;;
64282;SDS011;50497;50.720;-2.084;2023-11-22T02:31:13;13.38;;;5.40;;
64282;SDS011;50497;50.720;-2.084;2023-11-22T02:33:38;12.43;;;5.15;;
64282;SDS011;50497;50.720;-2.084;2023-11-22T02:36:04;12.55;;;5.28;;
64282;SDS011;50497;50.720;-2.084;2023-11-22T02:38:31;15.07;;;5.43;;
64282;SDS011;50497;50.720;-2.084;2023-11-22T02:40:56;13.25;;;5.07;;
64282;SDS011;50497;50.720;-2.084;2023-11-22T02:43:23;12.98;;;5.32;;
64282;SDS011;50497;50.720;-2.084;2023-11-22T02:45:49;16.83;;;5.43;;
64282;SDS011;50497;50.720;-2.084;2023-11-22T02:48:14;13.02;;;5.40;;
64282;SDS011;50497;50.720;-2.084;2023-11-22T02:50:39;12.55;;;5.20;;
64282;SDS011;50497;50.720;-2.084;2023-11-22T02:53:08;12.10;;;5.35;;
64282;SDS011;50497;50.720;-2.084;2023-11-22T02:55:33;14.32;;;5.05;;
64282;SDS011;50497;50.720;-2.084;2023-11-22T02:57:59;14.00;;;5.68;;
64282;SDS011;50497;50.720;-2.084;2023-11-22T03:00:24;15.40;;;6.47;;
64282;SDS011;50497;50.720;-2.084;2023-11-22T03:02:50;13.55;;;5.50;;
64282;SDS011;50497;50.720;-2.084;2023-11-22T03:05:19;12.70;;;5.93;;
64282;SDS011;50497;50.720;-2.084;2023-11-22T03:07:47;16.58;;;5.38;;
64282;SDS011;50497;50.720;-2.084;2023-11-22T03:10:13;15.25;;;5.70;;
64282;SDS011;50497;50.720;-2.084;2023-11-22T03:12:38;13.05;;;5.55;;
64282;SDS011;50497;50.720;-2.084;2023-11-22T03:15:04;11.93;;;5.25;;
64282;SDS011;50497;50.720;-2.084;2023-11-22T03:17:30;15.57;;;6.05;;
64282;SDS011;50497;50.720;-2.084;2023-11-22T03:19:56;12.10;;;4.90;;
64282;SDS011;50497;50.720;-2.084;2023-11-22T03:22:25;13.13;;;5.32;;
64282;SDS011;50497;50.720;-2.084;2023-11-22T03:24:51;11.70;;;5.03;;
64282;SDS011;50497;50.720;-2.084;2023-11-22T03:27:18;11.35;;;4.88;;
64282;SDS011;50497;50.720;-2.084;2023-11-22T03:29:43;15.80;;;5.93;;
64282;SDS011;50497;50.720;-2.084;2023-11-22T03:32:09;13.77;;;5.85;;
64282;SDS011;50497;50.720;-2.084;2023-11-22T03:34:36;14.27;;;5.30;;
64282;SDS011;50497;50.720;-2.084;2023-11-22T03:37:01;14.63;;;6.20;;
64282;SDS011;50497;50.720;-2.084;2023-11-22T03:39:27;13.07;;;6.20;;
64282;SDS011;50497;50.720;-2.084;2023-11-22T03:41:52;14.90;;;6.00;;
64282;SDS011;50497;50.720;-2.084;2023-11-22T03:44:17;15.82;;;6.05;;
64282;SDS011;50497;50.720;-2.084;2023-11-22T03:46:43;14.02;;;5.25;;
64282;SDS011;50497;50.720;-2.084;2023-11-22T03:49:09;16.23;;;6.13;;
64282;SDS011;50497;50.720;-2.084;2023-11-22T03:51:38;16.02;;;6.10;;
64282;SDS011;50497;50.720;-2.084;2023-11-22T03:54:04;15.00;;;5.90;;
64282;SDS011;50497;50.720;-2.084;2023-11-22T03:56:30;14.90;;;5.70;;
64282;SDS011;50497;50.720;-2.084;2023-11-22T03:58:56;9.85;;;4.65;;
64282;SDS011;50497;50.720;-2.084;2023-11-22T04:01:21;10.45;;;4.38;;
64282;SDS011;50497;50.720;-2.084;2023-11-22T04:03:47;11.00;;;4.35;;
64282;SDS011;50497;50.720;-2.084;2023-11-22T04:06:14;13.15;;;4.40;;
64282;SDS011;50497;50.720;-2.084;2023-11-22T04:08:43;10.77;;;4.10;;
64282;SDS011;50497;50.720;-2.084;2023-11-22T04:11:14;12.10;;;4.30;;
64282;SDS011;50497;50.720;-2.084;2023-11-22T04:13:41;10.18;;;4.10;;
64282;SDS011;50497;50.720;-2.084;2023-11-22T04:16:07;10.27;;;3.80;;
64282;SDS011;50497;50.720;-2.084;2023-11-22T04:18:34;11.32;;;4.30;;
64282;SDS011;50497;50.720;-2.084;2023-11-22T04:21:00;11.10;;;4.25;;
64282;SDS011;50497;50.720;-2.084;2023-11-22T04:23:28;9.57;;;4.03;;
64282;SDS011;50497;50.720;-2.084;2023-11-22T04:25:53;9.80;;;3.92;;
64282;SDS011;50497;50.720;-2.084;2023-11-22T04:28:18;9.30;;;3.70;;
64282;SDS011;50497;50.720;-2.084;2023-11-22T04:30:44;11.70;;;4.22;;
64282;SDS011;50497;50.720;-2.084;2023-11-22T04:33:09;9.85;;;4.05;;
64282;SDS011;50497;50.720;-2.084;2023-11-22T04:35:34;11.68;;;4.13;;
64282;SDS011;50497;50.720;-2.084;2023-11-22T04:38:02;11.03;;;4.27;;
64282;SDS011;50497;50.720;-2.084;2023-11-22T04:42:53;13.48;;;3.95;;
64282;SDS011;50497;50.720;-2.084;2023-11-22T04:45:19;11.38;;;4.30;;
64282;SDS011;50497;50.720;-2.084;2023-11-22T04:47:44;9.25;;;4.03;;
64282;SDS011;50497;50.720;-2.084;2023-11-22T04:50:09;10.48;;;4.55;;
64282;SDS011;50497;50.720;-2.084;2023-11-22T04:52:35;10.43;;;4.07;;
64282;SDS011;50497;50.720;-2.084;2023-11-22T04:55:01;9.57;;;3.95;;
64282;SDS011;50497;50.720;-2.084;2023-11-22T04:57:26;9.32;;;4.50;;
64282;SDS011;50497;50.720;-2.084;2023-11-22T04:59:51;9.50;;;3.90;;
64282;SDS011;50497;50.720;-2.084;2023-11-22T05:02:18;10.25;;;4.10;;
64282;SDS011;50497;50.720;-2.084;2023-11-22T05:04:43;10.32;;;4.30;;
64282;SDS011;50497;50.720;-2.084;2023-11-22T05:07:12;11.00;;;4.53;;
64282;SDS011;50497;50.720;-2.084;2023-11-22T05:09:38;9.60;;;3.80;;
64282;SDS011;50497;50.720;-2.084;2023-11-22T05:12:03;9.90;;;3.90;;
64282;SDS011;50497;50.720;-2.084;2023-11-22T05:14:29;12.48;;;4.30;;
64282;SDS011;50497;50.720;-2.084;2023-11-22T05:16:54;10.40;;;4.20;;
64282;SDS011;50497;50.720;-2.084;2023-11-22T05:24:12;11.73;;;4.27;;
64282;SDS011;50497;50.720;-2.084;2023-11-22T05:26:37;11.77;;;4.60;;
64282;SDS011;50497;50.720;-2.084;2023-11-22T05:29:03;10.38;;;3.58;;
64282;SDS011;50497;50.720;-2.084;2023-11-22T05:31:30;10.13;;;3.70;;
64282;SDS011;50497;50.720;-2.084;2023-11-22T05:33:55;12.40;;;4.32;;
64282;SDS011;50497;50.720;-2.084;2023-11-22T05:36:20;10.48;;;4.45;;
64282;SDS011;50497;50.720;-2.084;2023-11-22T05:38:46;10.43;;;4.35;;
64282;SDS011;50497;50.720;-2.084;2023-11-22T05:41:11;11.05;;;4.63;;
64282;SDS011;50497;50.720;-2.084;2023-11-22T05:43:37;10.90;;;4.60;;
64282;SDS011;50497;50.720;-2.084;2023-11-22T05:46:06;10.23;;;4.03;;
64282;SDS011;50497;50.720;-2.084;2023-11-22T05:48:32;10.68;;;4.57;;
64282;SDS011;50497;50.720;-2.084;2023-11-22T05:50:58;11.75;;;4.50;;
64282;SDS011;50497;50.720;-2.084;2023-11-22T05:53:23;11.80;;;4.40;;
64282;SDS011;50497;50.720;-2.084;2023-11-22T05:55:49;11.63;;;4.50;;
64282;SDS011;50497;50.720;-2.084;2023-11-22T05:58:14;17.13;;;5.30;;
64282;SDS011;50497;50.720;-2.084;2023-11-22T06:00:46;11.82;;;4.30;;
64282;SDS011;50497;50.720;-2.084;2023-11-22T06:03:12;10.18;;;4.40;;
64282;SDS011;50497;50.720;-2.084;2023-11-22T06:05:38;15.02;;;5.50;;
64282;SDS011;50497;50.720;-2.084;2023-11-22T06:08:04;10.98;;;4.88;;
64282;SDS011;50497;50.720;-2.084;2023-11-22T06:10:30;13.10;;;5.90;;
64282;SDS011;50497;50.720;-2.084;2023-11-22T06:12:55;14.40;;;5.43;;
64282;SDS011;50497;50.720;-2.084;2023-11-22T06:15:21;11.38;;;4.65;;
64282;SDS011;50497;50.720;-2.084;2023-11-22T06:17:47;10.85;;;4.90;;
64282;SDS011;50497;50.720;-2.084;2023-11-22T06:20:16;12.32;;;4.85;;
64282;SDS011;50497;50.720;-2.084;2023-11-22T06:22:41;12.45;;;4.85;;
64282;SDS011;50497;50.720;-2.084;2023-11-22T06:25:13;13.55;;;5.60;;
64282;SDS011;50497;50.720;-2.084;2023-11-22T06:27:39;11.93;;;4.88;;
64282;SDS011;50497;50.720;-2.084;2023-11-22T06:30:05;13.73;;;5.45;;
64282;SDS011;50497;50.720;-2.084;2023-11-22T06:32:36;12.77;;;5.30;;
64282;SDS011;50497;50.720;-2.084;2023-11-22T06:35:02;10.60;;;4.80;;
64282;SDS011;50497;50.720;-2.084;2023-11-22T06:37:28;13.23;;;5.05;;
64282;SDS011;50497;50.720;-2.084;2023-11-22T06:39:53;13.15;;;5.28;;
64282;SDS011;50497;50.720;-2.084;2023-11-22T06:42:19;10.27;;;4.65;;
64282;SDS011;50497;50.720;-2.084;2023-11-22T06:44:47;12.30;;;5.15;;
64282;SDS011;50497;50.720;-2.084;2023-11-22T06:47:13;10.43;;;4.35;;
64282;SDS011;50497;50.720;-2.084;2023-11-22T06:49:38;13.48;;;5.30;;
64282;SDS011;50497;50.720;-2.084;2023-11-22T06:52:04;10.80;;;4.93;;
64282;SDS011;50497;50.720;-2.084;2023-11-22T06:54:29;11.73;;;5.43;;
64282;SDS011;50497;50.720;-2.084;2023-11-22T06:56:54;13.82;;;5.10;;
64282;SDS011;50497;50.720;-2.084;2023-11-22T06:59:20;14.88;;;5.20;;
64282;SDS011;50497;50.720;-2.084;2023-11-22T07:01:45;13.63;;;5.60;;
64282;SDS011;50497;50.720;-2.084;2023-11-22T07:04:11;13.88;;;5.45;;
64282;SDS011;50497;50.720;-2.084;2023-11-22T07:06:36;13.70;;;5.60;;
64282;SDS011;50497;50.720;-2.084;2023-11-22T07:09:05;13.93;;;5.63;;
64282;SDS011;50497;50.720;-2.084;2023-11-22T07:11:30;13.27;;;5.40;;
64282;SDS011;50497;50.720;-2.084;2023-11-22T07:13:56;14.35;;;5.85;;
64282;SDS011;50497;50.720;-2.084;2023-11-22T07:16:22;16.98;;;6.47;;
64282;SDS011;50497;50.720;-2.084;2023-11-22T07:18:49;15.82;;;6.50;;
64282;SDS011;50497;50.720;-2.084;2023-11-22T07:21:15;16.13;;;5.95;;
64282;SDS011;50497;50.720;-2.084;2023-11-22T07:23:41;17.85;;;7.18;;
64282;SDS011;50497;50.720;-2.084;2023-11-22T07:26:07;15.23;;;6.07;;
64282;SDS011;50497;50.720;-2.084;2023-11-22T07:28:32;14.68;;;6.50;;
64282;SDS011;50497;50.720;-2.084;2023-11-22T07:31:03;16.20;;;7.32;;
64282;SDS011;50497;50.720;-2.084;2023-11-22T07:33:32;18.42;;;6.78;;
64282;SDS011;50497;50.720;-2.084;2023-11-22T07:35:58;16.63;;;6.68;;
64282;SDS011;50497;50.720;-2.084;2023-11-22T07:38:24;18.67;;;7.10;;
64282;SDS011;50497;50.720;-2.084;2023-11-22T07:40:49;22.50;;;7.57;;
64282;SDS011;50497;50.720;-2.084;2023-11-22T07:43:16;18.05;;;6.70;;
64282;SDS011;50497;50.720;-2.084;2023-11-22T07:45:41;17.27;;;6.45;;
64282;SDS011;50497;50.720;-2.084;2023-11-22T07:50:36;15.48;;;6.07;;
64282;SDS011;50497;50.720;-2.084;2023-11-22T07:53:03;15.23;;;6.70;;
64282;SDS011;50497;50.720;-2.084;2023-11-22T07:55:32;18.60;;;7.72;;
64282;SDS011;50497;50.720;-2.084;2023-11-22T07:58:00;15.13;;;6.72;;
64282;SDS011;50497;50.720;-2.084;2023-11-22T08:00:26;16.92;;;6.80;;
64282;SDS011;50497;50.720;-2.084;2023-11-22T08:02:52;19.08;;;7.45;;
64282;SDS011;50497;50.720;-2.084;2023-11-22T08:05:19;16.17;;;6.72;;
64282;SDS011;50497;50.720;-2.084;2023-11-22T08:07:47;17.38;;;7.50;;
64282;SDS011;50497;50.720;-2.084;2023-11-22T08:12:46;17.77;;;7.13;;
64282;SDS011;50497;50.720;-2.084;2023-11-22T08:15:12;16.45;;;7.13;;
64282;SDS011;50497;50.720;-2.084;2023-11-22T08:20:05;19.73;;;7.70;;
64282;SDS011;50497;50.720;-2.084;2023-11-22T08:22:34;19.48;;;7.68;;
64282;SDS011;50497;50.720;-2.084;2023-11-22T08:25:03;15.85;;;6.72;;
64282;SDS011;50497;50.720;-2.084;2023-11-22T08:27:29;16.95;;;7.03;;
64282;SDS011;50497;50.720;-2.084;2023-11-22T08:29:54;20.98;;;8.15;;
64282;SDS011;50497;50.720;-2.084;2023-11-22T08:32:20;19.73;;;8.48;;
64282;SDS011;50497;50.720;-2.084;2023-11-22T08:34:48;19.80;;;8.63;;
64282;SDS011;50497;50.720;-2.084;2023-11-22T08:37:14;28.35;;;12.15;;
64282;SDS011;50497;50.720;-2.084;2023-11-22T08:39:40;19.85;;;8.90;;
64282;SDS011;50497;50.720;-2.084;2023-11-22T08:42:05;24.27;;;8.93;;
64282;SDS011;50497;50.720;-2.084;2023-11-22T08:44:34;12.07;;;5.40;;
64282;SDS011;50497;50.720;-2.084;2023-11-22T08:47:01;11.65;;;5.00;;
64282;SDS011;50497;50.720;-2.084;2023-11-22T08:49:28;18.92;;;7.82;;
64282;SDS011;50497;50.720;-2.084;2023-11-22T08:51:53;16.98;;;7.47;;
64282;SDS011;50497;50.720;-2.084;2023-11-22T08:54:19;17.73;;;7.25;;
64282;SDS011;50497;50.720;-2.084;2023-11-22T08:56:44;16.10;;;6.50;;
64282;SDS011;50497;50.720;-2.084;2023-11-22T08:59:11;15.38;;;5.88;;
64282;SDS011;50497;50.720;-2.084;2023-11-22T09:01:37;15.43;;;6.75;;
64282;SDS011;50497;50.720;-2.084;2023-11-22T09:04:02;16.15;;;6.78;;
64282;SDS011;50497;50.720;-2.084;2023-11-22T09:06:28;14.73;;;6.25;;
64282;SDS011;50497;50.720;-2.084;2023-11-22T09:08:54;15.55;;;6.50;;
64282;SDS011;50497;50.720;-2.084;2023-11-22T09:11:21;13.57;;;6.03;;
64282;SDS011;50497;50.720;-2.084;2023-11-22T09:13:47;14.63;;;6.05;;
64282;SDS011;50497;50.720;-2.084;2023-11-22T09:16:14;14.52;;;5.85;;
64282;SDS011;50497;50.720;-2.084;2023-11-22T09:18:41;14.38;;;6.50;;
64282;SDS011;50497;50.720;-2.084;2023-11-22T09:21:07;13.73;;;5.90;;
64282;SDS011;50497;50.720;-2.084;2023-11-22T09:23:34;17.63;;;6.93;;
64282;SDS011;50497;50.720;-2.084;2023-11-22T09:26:01;16.30;;;6.18;;
64282;SDS011;50497;50.720;-2.084;2023-11-22T09:28:27;14.55;;;6.22;;
64282;SDS011;50497;50.720;-2.084;2023-11-22T09:30:53;13.13;;;5.78;;
64282;SDS011;50497;50.720;-2.084;2023-11-22T09:33:18;15.48;;;6.30;;
64282;SDS011;50497;50.720;-2.084;2023-11-22T09:35:44;14.88;;;5.72;;
64282;SDS011;50497;50.720;-2.084;2023-11-22T09:38:12;15.30;;;5.40;;
64282;SDS011;50497;50.720;-2.084;2023-11-22T09:43:13;13.10;;;5.38;;
64282;SDS011;50497;50.720;-2.084;2023-11-22T09:45:48;13.02;;;5.78;;
64282;SDS011;50497;50.720;-2.084;2023-11-22T09:48:15;13.30;;;5.90;;
64282;SDS011;50497;50.720;-2.084;2023-11-22T09:53:21;13.77;;;6.10;;
64282;SDS011;50497;50.720;-2.084;2023-11-22T09:55:50;17.58;;;6.45;;
64282;SDS011;50497;50.720;-2.084;2023-11-22T09:58:16;15.70;;;7.60;;
64282;SDS011;50497;50.720;-2.084;2023-11-22T10:03:09;12.07;;;5.05;;
64282;SDS011;50497;50.720;-2.084;2023-11-22T10:05:37;12.43;;;5.85;;
64282;SDS011;50497;50.720;-2.084;2023-11-22T10:08:04;12.43;;;5.72;;
64282;SDS011;50497;50.720;-2.084;2023-11-22T10:10:30;15.13;;;6.32;;
64282;SDS011;50497;50.720;-2.084;2023-11-22T10:12:57;9.18;;;4.88;;
64282;SDS011;50497;50.720;-2.084;2023-11-22T10:15:23;2.33;;;1.10;;
64282;SDS011;50497;50.720;-2.084;2023-11-22T10:17:56;16.55;;;7.15;;
64282;SDS011;50497;50.720;-2.084;2023-11-22T10:20:39;6.50;;;5.78;;
64282;SDS011;50497;50.720;-2.084;2023-11-22T10:23:12;21.80;;;7.72;;
64282;SDS011;50497;50.720;-2.084;2023-11-22T10:25:46;14.57;;;5.95;;
64282;SDS011;50497;50.720;-2.084;2023-11-22T10:28:14;13.73;;;6.28;;
64282;SDS011;50497;50.720;-2.084;2023-11-22T10:30:47;13.82;;;6.00;;
64282;SDS011;50497;50.720;-2.084;2023-11-22T10:33:14;13.18;;;5.55;;
64282;SDS011;50497;50.720;-2.084;2023-11-22T10:35:44;12.40;;;5.30;;
64282;SDS011;50497;50.720;-2.084;2023-11-22T10:38:14;11.18;;;4.45;;
64282;SDS011;50497;50.720;-2.084;2023-11-22T10:40:40;10.38;;;4.50;;
64282;SDS011;50497;50.720;-2.084;2023-11-22T10:43:13;12.00;;;4.82;;
64282;SDS011;50497;50.720;-2.084;2023-11-22T10:45:40;10.23;;;4.47;;
64282;SDS011;50497;50.720;-2.084;2023-11-22T10:48:11;12.43;;;4.90;;
64282;SDS011;50497;50.720;-2.084;2023-11-22T10:50:40;11.02;;;4.80;;
64282;SDS011;50497;50.720;-2.084;2023-11-22T10:53:07;11.00;;;4.40;;
64282;SDS011;50497;50.720;-2.084;2023-11-22T10:55:38;8.23;;;3.70;;
64282;SDS011;50497;50.720;-2.084;2023-11-22T10:58:13;8.88;;;3.90;;
64282;SDS011;50497;50.720;-2.084;2023-11-22T11:00:40;8.18;;;3.53;;
64282;SDS011;50497;50.720;-2.084;2023-11-22T11:06:03;7.68;;;3.40;;
64282;SDS011;50497;50.720;-2.084;2023-11-22T11:08:33;8.20;;;3.20;;
64282;SDS011;50497;50.720;-2.084;2023-11-22T11:11:01;8.48;;;3.20;;
64282;SDS011;50497;50.720;-2.084;2023-11-22T11:13:29;9.38;;;3.55;;
64282;SDS011;50497;50.720;-2.084;2023-11-22T11:15:55;8.30;;;3.20;;
64282;SDS011;50497;50.720;-2.084;2023-11-22T11:18:21;9.82;;;3.40;;
64282;SDS011;50497;50.720;-2.084;2023-11-22T11:20:51;8.05;;;2.75;;
64282;SDS011;50497;50.720;-2.084;2023-11-22T11:23:22;8.55;;;3.13;;
64282;SDS011;50497;50.720;-2.084;2023-11-22T11:25:58;5.65;;;2.60;;
64282;SDS011;50497;50.720;-2.084;2023-11-22T11:28:27;6.78;;;2.70;;
64282;SDS011;50497;50.720;-2.084;2023-11-22T11:31:08;6.78;;;2.35;;
64282;SDS011;50497;50.720;-2.084;2023-11-22T11:36:03;6.68;;;2.30;;
64282;SDS011;50497;50.720;-2.084;2023-11-22T11:38:36;8.05;;;2.40;;
64282;SDS011;50497;50.720;-2.084;2023-11-22T11:41:08;7.22;;;2.50;;
64282;SDS011;50497;50.720;-2.084;2023-11-22T11:43:42;7.88;;;2.30;;
64282;SDS011;50497;50.720;-2.084;2023-11-22T11:46:10;7.13;;;2.28;;
64282;SDS011;50497;50.720;-2.084;2023-11-22T11:48:36;5.75;;;2.03;;
64282;SDS011;50497;50.720;-2.084;2023-11-22T11:51:02;6.22;;;2.20;;
64282;SDS011;50497;50.720;-2.084;2023-11-22T11:53:28;6.43;;;1.98;;
64282;SDS011;50497;50.720;-2.084;2023-11-22T11:55:55;7.72;;;2.00;;
64282;SDS011;50497;50.720;-2.084;2023-11-22T11:58:21;7.43;;;2.00;;
64282;SDS011;50497;50.720;-2.084;2023-11-22T12:00:49;7.75;;;2.20;;
64282;SDS011;50497;50.720;-2.084;2023-11-22T12:03:19;6.07;;;1.98;;
64282;SDS011;50497;50.720;-2.084;2023-11-22T12:05:46;7.20;;;1.80;;
64282;SDS011;50497;50.720;-2.084;2023-11-22T12:08:14;4.93;;;1.80;;
64282;SDS011;50497;50.720;-2.084;2023-11-22T12:10:44;6.72;;;1.73;;
64282;SDS011;50497;50.720;-2.084;2023-11-22T12:13:20;7.13;;;1.70;;
64282;SDS011;50497;50.720;-2.084;2023-11-22T12:15:46;7.05;;;1.67;;
64282;SDS011;50497;50.720;-2.084;2023-11-22T12:18:12;7.00;;;1.92;;
64282;SDS011;50497;50.720;-2.084;2023-11-22T12:20:38;5.22;;;1.80;;
64282;SDS011;50497;50.720;-2.084;2023-11-22T12:23:04;9.07;;;1.80;;
64282;SDS011;50497;50.720;-2.084;2023-11-22T12:25:30;4.35;;;1.40;;
64282;SDS011;50497;50.720;-2.084;2023-11-22T12:27:56;7.50;;;2.00;;
64282;SDS011;50497;50.720;-2.084;2023-11-22T12:30:28;7.10;;;2.25;;
64282;SDS011;50497;50.720;-2.084;2023-11-22T12:33:00;7.22;;;2.03;;
64282;SDS011;50497;50.720;-2.084;2023-11-22T12:35:27;5.20;;;1.70;;
64282;SDS011;50497;50.720;-2.084;2023-11-22T12:37:52;8.07;;;2.05;;
64282;SDS011;50497;50.720;-2.084;2023-11-22T12:40:20;3.90;;;3.60;;
64282;SDS011;50497;50.720;-2.084;2023-11-22T12:42:49;1.52;;;1.25;;
64282;SDS011;50497;50.720;-2.084;2023-11-22T12:45:19;9.50;;;5.03;;
64282;SDS011;50497;50.720;-2.084;2023-11-22T12:47:49;0.00;;;0.00;;
64282;SDS011;50497;50.720;-2.084;2023-11-22T12:52:57;3.63;;;3.20;;
64282;SDS011;50497;50.720;-2.084;2023-11-22T12:55:23;7.72;;;3.28;;
64282;SDS011;50497;50.720;-2.084;2023-11-22T12:57:58;6.55;;;2.42;;
64282;SDS011;50497;50.720;-2.084;2023-11-22T13:00:27;4.43;;;1.50;;
64282;SDS011;50497;50.720;-2.084;2023-11-22T13:02:54;9.25;;;2.13;;
64282;SDS011;50497;50.720;-2.084;2023-11-22T13:05:21;4.63;;;1.55;;
64282;SDS011;50497;50.720;-2.084;2023-11-22T13:07:47;4.75;;;3.13;;
64282;SDS011;50497;50.720;-2.084;2023-11-22T13:10:12;8.20;;;2.75;;
64282;SDS011;50497;50.720;-2.084;2023-11-22T13:12:41;5.97;;;1.60;;
64282;SDS011;50497;50.720;-2.084;2023-11-22T13:15:09;6.20;;;4.90;;
64282;SDS011;50497;50.720;-2.084;2023-11-22T13:17:36;0.00;;;0.00;;
64282;SDS011;50497;50.720;-2.084;2023-11-22T13:20:02;7.72;;;2.00;;
64282;SDS011;50497;50.720;-2.084;2023-11-22T13:22:28;6.10;;;2.05;;
64282;SDS011;50497;50.720;-2.084;2023-11-22T13:24:54;6.13;;;1.50;;
64282;SDS011;50497;50.720;-2.084;2023-11-22T13:27:19;5.47;;;1.42;;
64282;SDS011;50497;50.720;-2.084;2023-11-22T13:29:45;4.55;;;1.70;;
64282;SDS011;50497;50.720;-2.084;2023-11-22T13:32:11;6.43;;;1.63;;
64282;SDS011;50497;50.720;-2.084;2023-11-22T13:34:37;4.43;;;1.52;;
64282;SDS011;50497;50.720;-2.084;2023-11-22T13:37:02;4.95;;;1.50;;
64282;SDS011;50497;50.720;-2.084;2023-11-22T13:39:27;7.97;;;2.83;;
64282;SDS011;50497;50.720;-2.084;2023-11-22T13:41:53;7.20;;;1.92;;
64282;SDS011;50497;50.720;-2.084;2023-11-22T13:44:18;7.60;;;2.47;;
64282;SDS011;50497;50.720;-2.084;2023-11-22T13:46:44;6.38;;;2.42;;
64282;SDS011;50497;50.720;-2.084;2023-11-22T13:49:09;10.48;;;2.30;;
64282;SDS011;50497;50.720;-2.084;2023-11-22T13:51:34;7.70;;;1.88;;
64282;SDS011;50497;50.720;-2.084;2023-11-22T13:54:00;5.70;;;1.65;;
64282;SDS011;50497;50.720;-2.084;2023-11-22T13:56:25;6.57;;;1.77;;
64282;SDS011;50497;50.720;-2.084;2023-11-22T13:58:51;6.03;;;1.70;;
64282;SDS011;50497;50.720;-2.084;2023-11-22T14:01:16;5.65;;;1.80;;
64282;SDS011;50497;50.720;-2.084;2023-11-22T14:03:46;8.35;;;2.05;;
64282;SDS011;50497;50.720;-2.084;2023-11-22T14:06:12;8.52;;;2.25;;
64282;SDS011;50497;50.720;-2.084;2023-11-22T14:08:41;5.03;;;1.50;;
64282;SDS011;50497;50.720;-2.084;2023-11-22T14:11:07;7.43;;;1.70;;
64282;SDS011;50497;50.720;-2.084;2023-11-22T14:13:32;6.10;;;1.60;;
64282;SDS011;50497;50.720;-2.084;2023-11-22T14:15:57;6.88;;;1.60;;
64282;SDS011;50497;50.720;-2.084;2023-11-22T14:18:23;8.20;;;1.70;;
64282;SDS011;50497;50.720;-2.084;2023-11-22T14:20:50;5.20;;;1.50;;
64282;SDS011;50497;50.720;-2.084;2023-11-22T14:23:16;6.28;;;1.67;;
64282;SDS011;50497;50.720;-2.084;2023-11-22T14:25:42;6.22;;;1.42;;
64282;SDS011;50497;50.720;-2.084;2023-11-22T14:28:07;6.57;;;2.30;;
64282;SDS011;50497;50.720;-2.084;2023-11-22T14:30:33;5.75;;;1.60;;
64282;SDS011;50497;50.720;-2.084;2023-11-22T14:33:01;3.67;;;1.40;;
64282;SDS011;50497;50.720;-2.084;2023-11-22T14:35:33;6.13;;;1.90;;
64282;SDS011;50497;50.720;-2.084;2023-11-22T14:38:00;4.40;;;1.50;;
64282;SDS011;50497;50.720;-2.084;2023-11-22T14:40:25;5.50;;;1.80;;
64282;SDS011;50497;50.720;-2.084;2023-11-22T14:42:51;7.07;;;1.70;;
64282;SDS011;50497;50.720;-2.084;2023-11-22T14:45:19;4.68;;;1.60;;
64282;SDS011;50497;50.720;-2.084;2023-11-22T14:47:48;5.13;;;1.90;;
64282;SDS011;50497;50.720;-2.084;2023-11-22T14:50:16;5.28;;;1.65;;
64282;SDS011;50497;50.720;-2.084;2023-11-22T14:52:41;4.10;;;1.52;;